Terminal Aerodrome Forecast
Issued by NWS

Home | Current Version | Previous Version | Text Only | Print | Product List | Glossary On
Versions: 1 2 3 4 5 6 7 8 9 10 11 12 13 14 15 16 17 18 19 20 21 22 23
010
FTUS44 KLZK 192340
TAFLIT
TAF
KLIT 192340Z 2000/2024 12008KT P6SM SKC
     FM200800 13005KT 6SM BR SCT025 OVC050
      TEMPO 2008/2012 5SM BR BKN025
     FM201200 14006KT 2SM BR OVC025
     FM201500 15008KT P6SM BKN025 OVC050
     FM201900 16012KT P6SM BKN050=

USA.gov is the U.S. government's official web portal to all federal, state and local government web resources and services.